sensor_id;sensor_type;location;lat;lon;timestamp;P1;durP1;ratioP1;P2;durP2;ratioP2
17207;SDS011;8720;48.488;9.202;2022-10-23T00:00:41;5.20;;;4.37;;
17207;SDS011;8720;48.488;9.202;2022-10-23T00:03:09;6.90;;;5.23;;
17207;SDS011;8720;48.488;9.202;2022-10-23T00:05:37;5.20;;;4.70;;
17207;SDS011;8720;48.488;9.202;2022-10-23T00:08:06;6.73;;;4.80;;
17207;SDS011;8720;48.488;9.202;2022-10-23T00:10:33;5.23;;;3.67;;
17207;SDS011;8720;48.488;9.202;2022-10-23T00:13:02;6.90;;;3.20;;
17207;SDS011;8720;48.488;9.202;2022-10-23T00:15:29;3.77;;;2.80;;
17207;SDS011;8720;48.488;9.202;2022-10-23T00:17:57;3.90;;;3.27;;
17207;SDS011;8720;48.488;9.202;2022-10-23T00:20:24;4.03;;;2.10;;
17207;SDS011;8720;48.488;9.202;2022-10-23T00:22:51;3.73;;;2.43;;
17207;SDS011;8720;48.488;9.202;2022-10-23T00:25:18;6.13;;;3.50;;
17207;SDS011;8720;48.488;9.202;2022-10-23T00:27:46;4.70;;;2.70;;
17207;SDS011;8720;48.488;9.202;2022-10-23T00:30:14;2.50;;;2.23;;
17207;SDS011;8720;48.488;9.202;2022-10-23T00:32:42;10.60;;;4.50;;
17207;SDS011;8720;48.488;9.202;2022-10-23T00:35:09;2.80;;;1.80;;
17207;SDS011;8720;48.488;9.202;2022-10-23T00:37:36;2.97;;;1.80;;
17207;SDS011;8720;48.488;9.202;2022-10-23T00:40:03;1.57;;;1.47;;
17207;SDS011;8720;48.488;9.202;2022-10-23T00:42:32;3.90;;;1.50;;
17207;SDS011;8720;48.488;9.202;2022-10-23T00:45:15;2.63;;;2.10;;
17207;SDS011;8720;48.488;9.202;2022-10-23T00:47:47;4.10;;;2.30;;
17207;SDS011;8720;48.488;9.202;2022-10-23T00:50:15;3.80;;;2.63;;
17207;SDS011;8720;48.488;9.202;2022-10-23T00:52:44;4.83;;;3.60;;
17207;SDS011;8720;48.488;9.202;2022-10-23T00:55:16;5.50;;;3.50;;
17207;SDS011;8720;48.488;9.202;2022-10-23T00:57:47;5.13;;;2.80;;
17207;SDS011;8720;48.488;9.202;2022-10-23T01:00:19;3.50;;;3.20;;
17207;SDS011;8720;48.488;9.202;2022-10-23T01:02:49;4.50;;;3.30;;
17207;SDS011;8720;48.488;9.202;2022-10-23T01:05:18;4.97;;;4.13;;
17207;SDS011;8720;48.488;9.202;2022-10-23T01:07:55;6.00;;;4.40;;
17207;SDS011;8720;48.488;9.202;2022-10-23T01:10:33;4.67;;;4.27;;
17207;SDS011;8720;48.488;9.202;2022-10-23T01:13:10;5.50;;;4.83;;
17207;SDS011;8720;48.488;9.202;2022-10-23T01:15:45;7.57;;;5.83;;
17207;SDS011;8720;48.488;9.202;2022-10-23T01:18:23;8.50;;;5.07;;
17207;SDS011;8720;48.488;9.202;2022-10-23T01:21:02;6.70;;;4.20;;
17207;SDS011;8720;48.488;9.202;2022-10-23T01:26:49;3.93;;;3.53;;
17207;SDS011;8720;48.488;9.202;2022-10-23T01:29:31;3.20;;;2.83;;
17207;SDS011;8720;48.488;9.202;2022-10-23T01:32:08;6.43;;;3.93;;
17207;SDS011;8720;48.488;9.202;2022-10-23T01:34:43;4.30;;;3.50;;
17207;SDS011;8720;48.488;9.202;2022-10-23T01:37:18;4.23;;;3.83;;
17207;SDS011;8720;48.488;9.202;2022-10-23T01:39:59;4.53;;;3.97;;
17207;SDS011;8720;48.488;9.202;2022-10-23T01:42:32;5.23;;;4.10;;
17207;SDS011;8720;48.488;9.202;2022-10-23T01:45:10;5.80;;;4.90;;
17207;SDS011;8720;48.488;9.202;2022-10-23T01:47:44;6.00;;;4.47;;
17207;SDS011;8720;48.488;9.202;2022-10-23T01:50:14;5.53;;;3.93;;
17207;SDS011;8720;48.488;9.202;2022-10-23T01:52:47;5.47;;;3.97;;
17207;SDS011;8720;48.488;9.202;2022-10-23T01:55:16;4.40;;;3.97;;
17207;SDS011;8720;48.488;9.202;2022-10-23T01:57:43;4.20;;;3.77;;
17207;SDS011;8720;48.488;9.202;2022-10-23T02:02:58;4.10;;;3.70;;
17207;SDS011;8720;48.488;9.202;2022-10-23T02:05:31;4.43;;;3.90;;
17207;SDS011;8720;48.488;9.202;2022-10-23T02:08:02;4.87;;;3.93;;
17207;SDS011;8720;48.488;9.202;2022-10-23T02:10:31;5.30;;;4.20;;
17207;SDS011;8720;48.488;9.202;2022-10-23T02:13:11;4.73;;;4.10;;
17207;SDS011;8720;48.488;9.202;2022-10-23T02:15:45;6.23;;;3.80;;
17207;SDS011;8720;48.488;9.202;2022-10-23T02:18:23;5.47;;;4.00;;
17207;SDS011;8720;48.488;9.202;2022-10-23T02:21:04;6.67;;;3.90;;
17207;SDS011;8720;48.488;9.202;2022-10-23T02:23:37;4.37;;;3.80;;
17207;SDS011;8720;48.488;9.202;2022-10-23T02:26:17;3.90;;;3.40;;
17207;SDS011;8720;48.488;9.202;2022-10-23T02:28:50;5.13;;;4.23;;
17207;SDS011;8720;48.488;9.202;2022-10-23T02:31:23;5.23;;;3.40;;
17207;SDS011;8720;48.488;9.202;2022-10-23T02:33:53;4.70;;;4.07;;
17207;SDS011;8720;48.488;9.202;2022-10-23T02:36:20;3.17;;;2.87;;
17207;SDS011;8720;48.488;9.202;2022-10-23T02:38:48;6.27;;;3.10;;
17207;SDS011;8720;48.488;9.202;2022-10-23T02:41:18;5.93;;;3.40;;
17207;SDS011;8720;48.488;9.202;2022-10-23T02:44:08;3.30;;;3.00;;
17207;SDS011;8720;48.488;9.202;2022-10-23T02:47:01;6.83;;;4.20;;
17207;SDS011;8720;48.488;9.202;2022-10-23T02:49:56;5.37;;;3.60;;
17207;SDS011;8720;48.488;9.202;2022-10-23T02:52:40;9.87;;;4.33;;
17207;SDS011;8720;48.488;9.202;2022-10-23T02:55:22;8.30;;;4.70;;
17207;SDS011;8720;48.488;9.202;2022-10-23T02:58:06;5.70;;;4.40;;
17207;SDS011;8720;48.488;9.202;2022-10-23T03:00:44;7.07;;;4.10;;
17207;SDS011;8720;48.488;9.202;2022-10-23T03:03:18;4.33;;;3.77;;
17207;SDS011;8720;48.488;9.202;2022-10-23T03:05:54;3.93;;;3.53;;
17207;SDS011;8720;48.488;9.202;2022-10-23T03:08:21;6.13;;;3.97;;
17207;SDS011;8720;48.488;9.202;2022-10-23T03:10:50;5.13;;;4.47;;
17207;SDS011;8720;48.488;9.202;2022-10-23T03:13:19;9.00;;;4.40;;
17207;SDS011;8720;48.488;9.202;2022-10-23T03:15:47;5.03;;;3.63;;
17207;SDS011;8720;48.488;9.202;2022-10-23T03:18:14;3.50;;;3.20;;
17207;SDS011;8720;48.488;9.202;2022-10-23T03:20:48;4.37;;;3.63;;
17207;SDS011;8720;48.488;9.202;2022-10-23T03:23:16;6.30;;;3.73;;
17207;SDS011;8720;48.488;9.202;2022-10-23T03:25:44;7.20;;;3.67;;
17207;SDS011;8720;48.488;9.202;2022-10-23T03:28:25;4.07;;;3.67;;
17207;SDS011;8720;48.488;9.202;2022-10-23T03:30:52;5.33;;;3.50;;
17207;SDS011;8720;48.488;9.202;2022-10-23T03:33:20;5.50;;;3.90;;
17207;SDS011;8720;48.488;9.202;2022-10-23T03:35:47;4.83;;;3.80;;
17207;SDS011;8720;48.488;9.202;2022-10-23T03:38:17;5.50;;;3.77;;
17207;SDS011;8720;48.488;9.202;2022-10-23T03:40:45;4.53;;;4.13;;
17207;SDS011;8720;48.488;9.202;2022-10-23T03:43:12;5.00;;;4.50;;
17207;SDS011;8720;48.488;9.202;2022-10-23T03:45:40;5.40;;;4.50;;
17207;SDS011;8720;48.488;9.202;2022-10-23T03:48:07;4.00;;;3.63;;
17207;SDS011;8720;48.488;9.202;2022-10-23T03:50:35;3.97;;;3.57;;
17207;SDS011;8720;48.488;9.202;2022-10-23T03:53:03;5.70;;;3.97;;
17207;SDS011;8720;48.488;9.202;2022-10-23T03:55:34;5.30;;;3.80;;
17207;SDS011;8720;48.488;9.202;2022-10-23T03:58:01;4.70;;;4.20;;
17207;SDS011;8720;48.488;9.202;2022-10-23T04:00:28;4.50;;;4.10;;
17207;SDS011;8720;48.488;9.202;2022-10-23T04:02:59;5.73;;;3.70;;
17207;SDS011;8720;48.488;9.202;2022-10-23T04:05:26;5.57;;;3.67;;
17207;SDS011;8720;48.488;9.202;2022-10-23T04:07:56;5.43;;;3.87;;
17207;SDS011;8720;48.488;9.202;2022-10-23T04:10:24;4.87;;;3.90;;
17207;SDS011;8720;48.488;9.202;2022-10-23T04:12:52;5.17;;;3.83;;
17207;SDS011;8720;48.488;9.202;2022-10-23T04:15:19;6.30;;;3.90;;
17207;SDS011;8720;48.488;9.202;2022-10-23T04:17:47;5.33;;;4.30;;
17207;SDS011;8720;48.488;9.202;2022-10-23T04:20:14;5.77;;;4.83;;
17207;SDS011;8720;48.488;9.202;2022-10-23T04:22:42;5.93;;;4.50;;
17207;SDS011;8720;48.488;9.202;2022-10-23T04:25:09;6.33;;;4.20;;
17207;SDS011;8720;48.488;9.202;2022-10-23T04:27:36;6.73;;;5.60;;
17207;SDS011;8720;48.488;9.202;2022-10-23T04:30:06;9.30;;;7.17;;
17207;SDS011;8720;48.488;9.202;2022-10-23T04:32:36;8.17;;;6.30;;
17207;SDS011;8720;48.488;9.202;2022-10-23T04:35:04;8.57;;;6.27;;
17207;SDS011;8720;48.488;9.202;2022-10-23T04:37:33;7.70;;;5.63;;
17207;SDS011;8720;48.488;9.202;2022-10-23T04:40:00;8.00;;;5.40;;
17207;SDS011;8720;48.488;9.202;2022-10-23T04:42:27;6.07;;;5.47;;
17207;SDS011;8720;48.488;9.202;2022-10-23T04:44:56;6.33;;;5.40;;
17207;SDS011;8720;48.488;9.202;2022-10-23T04:47:25;6.40;;;5.47;;
17207;SDS011;8720;48.488;9.202;2022-10-23T04:49:56;10.00;;;6.90;;
17207;SDS011;8720;48.488;9.202;2022-10-23T04:52:41;6.33;;;4.20;;
17207;SDS011;8720;48.488;9.202;2022-10-23T04:55:46;4.77;;;3.97;;
17207;SDS011;8720;48.488;9.202;2022-10-23T04:58:21;5.87;;;5.27;;
17207;SDS011;8720;48.488;9.202;2022-10-23T05:00:51;4.53;;;4.10;;
17207;SDS011;8720;48.488;9.202;2022-10-23T05:03:24;4.60;;;4.20;;
17207;SDS011;8720;48.488;9.202;2022-10-23T05:05:52;6.00;;;4.07;;
17207;SDS011;8720;48.488;9.202;2022-10-23T05:08:40;4.37;;;3.97;;
17207;SDS011;8720;48.488;9.202;2022-10-23T05:11:42;6.20;;;4.30;;
17207;SDS011;8720;48.488;9.202;2022-10-23T05:14:09;5.63;;;3.50;;
17207;SDS011;8720;48.488;9.202;2022-10-23T05:16:40;6.00;;;4.07;;
17207;SDS011;8720;48.488;9.202;2022-10-23T05:19:16;6.03;;;4.20;;
17207;SDS011;8720;48.488;9.202;2022-10-23T05:21:48;7.03;;;4.30;;
17207;SDS011;8720;48.488;9.202;2022-10-23T05:24:24;4.93;;;4.53;;
17207;SDS011;8720;48.488;9.202;2022-10-23T05:26:58;4.40;;;4.00;;
17207;SDS011;8720;48.488;9.202;2022-10-23T05:29:29;7.57;;;4.20;;
17207;SDS011;8720;48.488;9.202;2022-10-23T05:31:58;5.90;;;4.80;;
17207;SDS011;8720;48.488;9.202;2022-10-23T05:34:32;4.50;;;4.10;;
17207;SDS011;8720;48.488;9.202;2022-10-23T05:37:03;4.47;;;3.40;;
17207;SDS011;8720;48.488;9.202;2022-10-23T05:39:36;7.83;;;3.93;;
17207;SDS011;8720;48.488;9.202;2022-10-23T05:42:08;5.87;;;4.20;;
17207;SDS011;8720;48.488;9.202;2022-10-23T05:44:37;4.57;;;4.17;;
17207;SDS011;8720;48.488;9.202;2022-10-23T05:47:16;4.37;;;3.87;;
17207;SDS011;8720;48.488;9.202;2022-10-23T05:49:45;5.07;;;3.77;;
17207;SDS011;8720;48.488;9.202;2022-10-23T05:52:44;6.27;;;4.20;;
17207;SDS011;8720;48.488;9.202;2022-10-23T05:55:32;4.70;;;4.00;;
17207;SDS011;8720;48.488;9.202;2022-10-23T05:58:22;8.63;;;4.97;;
17207;SDS011;8720;48.488;9.202;2022-10-23T06:01:02;6.28;;;5.00;;
17207;SDS011;8720;48.488;9.202;2022-10-23T06:03:50;5.00;;;4.40;;
17207;SDS011;8720;48.488;9.202;2022-10-23T06:06:22;4.60;;;4.20;;
17207;SDS011;8720;48.488;9.202;2022-10-23T06:08:50;3.93;;;3.63;;
17207;SDS011;8720;48.488;9.202;2022-10-23T06:11:19;4.43;;;4.00;;
17207;SDS011;8720;48.488;9.202;2022-10-23T06:13:56;4.13;;;3.67;;
17207;SDS011;8720;48.488;9.202;2022-10-23T06:16:25;6.30;;;4.50;;
17207;SDS011;8720;48.488;9.202;2022-10-23T06:18:52;6.30;;;4.17;;
17207;SDS011;8720;48.488;9.202;2022-10-23T06:21:23;6.00;;;3.60;;
17207;SDS011;8720;48.488;9.202;2022-10-23T06:23:51;6.43;;;4.10;;
17207;SDS011;8720;48.488;9.202;2022-10-23T06:26:23;4.83;;;3.97;;
17207;SDS011;8720;48.488;9.202;2022-10-23T06:28:56;4.00;;;3.70;;
17207;SDS011;8720;48.488;9.202;2022-10-23T06:31:24;6.30;;;4.03;;
17207;SDS011;8720;48.488;9.202;2022-10-23T06:33:54;5.37;;;4.60;;
17207;SDS011;8720;48.488;9.202;2022-10-23T06:36:25;4.53;;;4.13;;
17207;SDS011;8720;48.488;9.202;2022-10-23T06:38:59;6.77;;;5.10;;
17207;SDS011;8720;48.488;9.202;2022-10-23T06:41:47;5.23;;;4.70;;
17207;SDS011;8720;48.488;9.202;2022-10-23T06:44:34;7.53;;;4.60;;
17207;SDS011;8720;48.488;9.202;2022-10-23T06:47:07;6.90;;;6.30;;
17207;SDS011;8720;48.488;9.202;2022-10-23T06:49:57;6.90;;;6.30;;
17207;SDS011;8720;48.488;9.202;2022-10-23T06:52:25;8.83;;;8.03;;
17207;SDS011;8720;48.488;9.202;2022-10-23T06:54:56;10.13;;;9.13;;
17207;SDS011;8720;48.488;9.202;2022-10-23T06:57:29;9.43;;;8.63;;
17207;SDS011;8720;48.488;9.202;2022-10-23T06:59:57;9.23;;;8.43;;
17207;SDS011;8720;48.488;9.202;2022-10-23T07:02:25;8.87;;;7.83;;
17207;SDS011;8720;48.488;9.202;2022-10-23T07:04:53;8.63;;;7.40;;
17207;SDS011;8720;48.488;9.202;2022-10-23T07:07:20;7.67;;;6.90;;
17207;SDS011;8720;48.488;9.202;2022-10-23T07:09:49;6.47;;;5.83;;
17207;SDS011;8720;48.488;9.202;2022-10-23T07:12:26;5.40;;;4.87;;
17207;SDS011;8720;48.488;9.202;2022-10-23T07:15:14;5.70;;;5.10;;
17207;SDS011;8720;48.488;9.202;2022-10-23T07:17:42;8.90;;;5.80;;
17207;SDS011;8720;48.488;9.202;2022-10-23T07:20:10;5.57;;;5.07;;
17207;SDS011;8720;48.488;9.202;2022-10-23T07:22:37;6.80;;;5.10;;
17207;SDS011;8720;48.488;9.202;2022-10-23T07:25:10;4.60;;;4.10;;
17207;SDS011;8720;48.488;9.202;2022-10-23T07:27:37;5.00;;;4.50;;
17207;SDS011;8720;48.488;9.202;2022-10-23T07:30:07;6.13;;;5.20;;
17207;SDS011;8720;48.488;9.202;2022-10-23T07:32:45;4.60;;;4.20;;
17207;SDS011;8720;48.488;9.202;2022-10-23T07:35:15;4.60;;;3.80;;
17207;SDS011;8720;48.488;9.202;2022-10-23T07:37:52;6.47;;;4.07;;
17207;SDS011;8720;48.488;9.202;2022-10-23T07:40:22;6.30;;;3.70;;
17207;SDS011;8720;48.488;9.202;2022-10-23T07:42:52;4.17;;;3.77;;
17207;SDS011;8720;48.488;9.202;2022-10-23T07:45:19;4.47;;;3.57;;
17207;SDS011;8720;48.488;9.202;2022-10-23T07:47:48;4.07;;;3.70;;
17207;SDS011;8720;48.488;9.202;2022-10-23T07:50:18;5.20;;;3.70;;
17207;SDS011;8720;48.488;9.202;2022-10-23T07:52:46;4.30;;;3.60;;
17207;SDS011;8720;48.488;9.202;2022-10-23T07:55:15;5.10;;;4.10;;
17207;SDS011;8720;48.488;9.202;2022-10-23T07:57:49;5.53;;;4.33;;
17207;SDS011;8720;48.488;9.202;2022-10-23T08:00:37;4.63;;;3.43;;
17207;SDS011;8720;48.488;9.202;2022-10-23T08:03:14;6.53;;;3.53;;
17207;SDS011;8720;48.488;9.202;2022-10-23T08:05:42;3.80;;;2.80;;
17207;SDS011;8720;48.488;9.202;2022-10-23T08:08:09;3.87;;;2.90;;
17207;SDS011;8720;48.488;9.202;2022-10-23T08:10:38;7.17;;;3.53;;
17207;SDS011;8720;48.488;9.202;2022-10-23T08:13:11;3.43;;;2.83;;
17207;SDS011;8720;48.488;9.202;2022-10-23T08:15:50;3.40;;;3.10;;
17207;SDS011;8720;48.488;9.202;2022-10-23T08:18:49;3.23;;;2.80;;
17207;SDS011;8720;48.488;9.202;2022-10-23T08:21:18;3.27;;;2.97;;
17207;SDS011;8720;48.488;9.202;2022-10-23T08:23:46;4.30;;;3.20;;
17207;SDS011;8720;48.488;9.202;2022-10-23T08:26:14;4.50;;;3.07;;
17207;SDS011;8720;48.488;9.202;2022-10-23T08:28:43;3.73;;;2.93;;
17207;SDS011;8720;48.488;9.202;2022-10-23T08:31:11;4.10;;;3.50;;
17207;SDS011;8720;48.488;9.202;2022-10-23T08:33:56;3.53;;;3.23;;
17207;SDS011;8720;48.488;9.202;2022-10-23T08:36:24;4.63;;;3.50;;
17207;SDS011;8720;48.488;9.202;2022-10-23T08:38:54;5.03;;;3.90;;
17207;SDS011;8720;48.488;9.202;2022-10-23T08:41:24;4.73;;;3.33;;
17207;SDS011;8720;48.488;9.202;2022-10-23T08:44:18;4.03;;;2.93;;
17207;SDS011;8720;48.488;9.202;2022-10-23T08:46:53;3.93;;;3.10;;
17207;SDS011;8720;48.488;9.202;2022-10-23T08:49:51;3.20;;;2.77;;
17207;SDS011;8720;48.488;9.202;2022-10-23T08:52:27;3.27;;;2.97;;
17207;SDS011;8720;48.488;9.202;2022-10-23T08:55:11;2.87;;;2.67;;
17207;SDS011;8720;48.488;9.202;2022-10-23T08:57:46;3.27;;;2.97;;
17207;SDS011;8720;48.488;9.202;2022-10-23T09:00:24;3.40;;;2.70;;
17207;SDS011;8720;48.488;9.202;2022-10-23T09:02:52;2.77;;;2.57;;
17207;SDS011;8720;48.488;9.202;2022-10-23T09:05:24;3.43;;;3.13;;
17207;SDS011;8720;48.488;9.202;2022-10-23T09:08:00;4.63;;;2.93;;
17207;SDS011;8720;48.488;9.202;2022-10-23T09:10:57;4.10;;;2.57;;
17207;SDS011;8720;48.488;9.202;2022-10-23T09:13:39;3.30;;;3.00;;
17207;SDS011;8720;48.488;9.202;2022-10-23T09:16:26;4.47;;;2.50;;
17207;SDS011;8720;48.488;9.202;2022-10-23T09:19:09;2.83;;;2.40;;
17207;SDS011;8720;48.488;9.202;2022-10-23T09:21:41;2.80;;;2.17;;
17207;SDS011;8720;48.488;9.202;2022-10-23T09:24:13;5.17;;;2.90;;
17207;SDS011;8720;48.488;9.202;2022-10-23T09:26:43;2.60;;;2.40;;
17207;SDS011;8720;48.488;9.202;2022-10-23T09:29:16;2.80;;;2.60;;
17207;SDS011;8720;48.488;9.202;2022-10-23T09:31:51;5.70;;;2.73;;
17207;SDS011;8720;48.488;9.202;2022-10-23T09:34:21;2.87;;;2.40;;
17207;SDS011;8720;48.488;9.202;2022-10-23T09:36:52;3.67;;;2.03;;
17207;SDS011;8720;48.488;9.202;2022-10-23T09:39:24;4.03;;;1.97;;
17207;SDS011;8720;48.488;9.202;2022-10-23T09:41:55;4.43;;;1.73;;
17207;SDS011;8720;48.488;9.202;2022-10-23T09:44:24;2.80;;;1.87;;
17207;SDS011;8720;48.488;9.202;2022-10-23T09:46:58;2.00;;;1.80;;
17207;SDS011;8720;48.488;9.202;2022-10-23T09:49:37;1.90;;;1.77;;
17207;SDS011;8720;48.488;9.202;2022-10-23T09:52:20;1.60;;;1.50;;
17207;SDS011;8720;48.488;9.202;2022-10-23T09:54:52;1.90;;;1.70;;
17207;SDS011;8720;48.488;9.202;2022-10-23T09:57:24;2.20;;;2.00;;
17207;SDS011;8720;48.488;9.202;2022-10-23T09:59:58;2.33;;;1.80;;
17207;SDS011;8720;48.488;9.202;2022-10-23T10:02:39;2.63;;;1.90;;
17207;SDS011;8720;48.488;9.202;2022-10-23T10:05:32;2.50;;;1.30;;
17207;SDS011;8720;48.488;9.202;2022-10-23T10:08:09;1.77;;;1.57;;
17207;SDS011;8720;48.488;9.202;2022-10-23T10:10:49;2.17;;;1.43;;
17207;SDS011;8720;48.488;9.202;2022-10-23T10:13:29;3.23;;;1.80;;
17207;SDS011;8720;48.488;9.202;2022-10-23T10:16:37;3.93;;;1.90;;
17207;SDS011;8720;48.488;9.202;2022-10-23T10:19:18;2.20;;;1.70;;
17207;SDS011;8720;48.488;9.202;2022-10-23T10:21:59;2.00;;;1.37;;
17207;SDS011;8720;48.488;9.202;2022-10-23T10:24:40;2.50;;;1.80;;
17207;SDS011;8720;48.488;9.202;2022-10-23T10:27:27;1.70;;;1.60;;
17207;SDS011;8720;48.488;9.202;2022-10-23T10:30:11;2.77;;;1.57;;
17207;SDS011;8720;48.488;9.202;2022-10-23T10:32:45;1.60;;;1.17;;
17207;SDS011;8720;48.488;9.202;2022-10-23T10:35:25;1.70;;;1.33;;
17207;SDS011;8720;48.488;9.202;2022-10-23T10:38:15;1.97;;;1.27;;
17207;SDS011;8720;48.488;9.202;2022-10-23T10:44:24;1.80;;;1.30;;
17207;SDS011;8720;48.488;9.202;2022-10-23T10:47:20;1.60;;;1.20;;
17207;SDS011;8720;48.488;9.202;2022-10-23T10:49:58;2.13;;;1.47;;
17207;SDS011;8720;48.488;9.202;2022-10-23T10:53:08;2.37;;;1.67;;
17207;SDS011;8720;48.488;9.202;2022-10-23T10:55:49;1.60;;;1.47;;
17207;SDS011;8720;48.488;9.202;2022-10-23T10:58:22;2.80;;;1.40;;
17207;SDS011;8720;48.488;9.202;2022-10-23T11:01:02;1.70;;;1.60;;
17207;SDS011;8720;48.488;9.202;2022-10-23T11:03:40;2.63;;;1.17;;
17207;SDS011;8720;48.488;9.202;2022-10-23T11:06:17;2.37;;;1.67;;
17207;SDS011;8720;48.488;9.202;2022-10-23T11:08:50;5.73;;;1.47;;
17207;SDS011;8720;48.488;9.202;2022-10-23T11:11:19;2.10;;;1.90;;
17207;SDS011;8720;48.488;9.202;2022-10-23T11:13:54;2.83;;;1.63;;
17207;SDS011;8720;48.488;9.202;2022-10-23T11:16:22;1.57;;;1.40;;
17207;SDS011;8720;48.488;9.202;2022-10-23T11:18:59;1.63;;;1.27;;
17207;SDS011;8720;48.488;9.202;2022-10-23T11:21:34;4.70;;;1.30;;
17207;SDS011;8720;48.488;9.202;2022-10-23T11:27:34;1.87;;;1.30;;
17207;SDS011;8720;48.488;9.202;2022-10-23T11:30:20;1.97;;;1.40;;
17207;SDS011;8720;48.488;9.202;2022-10-23T11:36:11;3.40;;;1.43;;
17207;SDS011;8720;48.488;9.202;2022-10-23T11:38:43;2.70;;;1.50;;
17207;SDS011;8720;48.488;9.202;2022-10-23T11:41:17;3.00;;;1.47;;
17207;SDS011;8720;48.488;9.202;2022-10-23T11:43:49;2.13;;;1.50;;
17207;SDS011;8720;48.488;9.202;2022-10-23T11:46:32;3.17;;;1.37;;
17207;SDS011;8720;48.488;9.202;2022-10-23T11:49:02;1.90;;;1.60;;
17207;SDS011;8720;48.488;9.202;2022-10-23T11:51:44;1.67;;;1.40;;
17207;SDS011;8720;48.488;9.202;2022-10-23T11:54:21;2.20;;;1.40;;
17207;SDS011;8720;48.488;9.202;2022-10-23T11:57:03;1.40;;;1.30;;
17207;SDS011;8720;48.488;9.202;2022-10-23T11:59:51;2.57;;;1.40;;
17207;SDS011;8720;48.488;9.202;2022-10-23T12:02:30;2.20;;;1.33;;
17207;SDS011;8720;48.488;9.202;2022-10-23T12:05:03;1.70;;;1.40;;
17207;SDS011;8720;48.488;9.202;2022-10-23T12:07:34;1.93;;;1.60;;
17207;SDS011;8720;48.488;9.202;2022-10-23T12:10:16;1.93;;;1.40;;
17207;SDS011;8720;48.488;9.202;2022-10-23T12:12:56;1.57;;;1.30;;
17207;SDS011;8720;48.488;9.202;2022-10-23T12:15:26;1.60;;;1.50;;
17207;SDS011;8720;48.488;9.202;2022-10-23T12:17:54;2.37;;;1.90;;
17207;SDS011;8720;48.488;9.202;2022-10-23T12:20:42;2.60;;;1.90;;
17207;SDS011;8720;48.488;9.202;2022-10-23T12:26:39;5.90;;;1.93;;
17207;SDS011;8720;48.488;9.202;2022-10-23T12:29:20;1.80;;;1.53;;
17207;SDS011;8720;48.488;9.202;2022-10-23T12:32:07;2.90;;;1.40;;
17207;SDS011;8720;48.488;9.202;2022-10-23T12:35:04;2.60;;;1.70;;
17207;SDS011;8720;48.488;9.202;2022-10-23T12:38:09;2.73;;;1.67;;
17207;SDS011;8720;48.488;9.202;2022-10-23T12:40:42;2.43;;;1.53;;
17207;SDS011;8720;48.488;9.202;2022-10-23T12:43:24;2.40;;;1.60;;
17207;SDS011;8720;48.488;9.202;2022-10-23T12:45:57;1.97;;;1.50;;
17207;SDS011;8720;48.488;9.202;2022-10-23T12:48:31;5.00;;;1.53;;
17207;SDS011;8720;48.488;9.202;2022-10-23T12:50:59;2.10;;;1.80;;
17207;SDS011;8720;48.488;9.202;2022-10-23T12:53:26;1.53;;;1.20;;
17207;SDS011;8720;48.488;9.202;2022-10-23T12:55:55;1.70;;;1.23;;
17207;SDS011;8720;48.488;9.202;2022-10-23T12:58:25;1.23;;;1.13;;
17207;SDS011;8720;48.488;9.202;2022-10-23T13:01:01;1.70;;;1.30;;
17207;SDS011;8720;48.488;9.202;2022-10-23T13:03:32;3.73;;;1.20;;
17207;SDS011;8720;48.488;9.202;2022-10-23T13:06:00;1.50;;;1.07;;
17207;SDS011;8720;48.488;9.202;2022-10-23T13:08:31;1.50;;;1.13;;
17207;SDS011;8720;48.488;9.202;2022-10-23T13:11:21;1.50;;;1.23;;
17207;SDS011;8720;48.488;9.202;2022-10-23T13:13:54;1.77;;;1.13;;
17207;SDS011;8720;48.488;9.202;2022-10-23T13:16:23;2.67;;;1.83;;
17207;SDS011;8720;48.488;9.202;2022-10-23T13:18:51;2.63;;;1.30;;
17207;SDS011;8720;48.488;9.202;2022-10-23T13:21:20;1.70;;;1.60;;
17207;SDS011;8720;48.488;9.202;2022-10-23T13:23:50;1.93;;;1.17;;
17207;SDS011;8720;48.488;9.202;2022-10-23T13:26:28;2.93;;;1.80;;
17207;SDS011;8720;48.488;9.202;2022-10-23T13:28:58;1.60;;;1.20;;
17207;SDS011;8720;48.488;9.202;2022-10-23T13:31:31;1.50;;;1.40;;
17207;SDS011;8720;48.488;9.202;2022-10-23T13:34:13;1.40;;;1.30;;
17207;SDS011;8720;48.488;9.202;2022-10-23T13:36:53;2.30;;;1.40;;
17207;SDS011;8720;48.488;9.202;2022-10-23T13:39:28;3.07;;;1.50;;
17207;SDS011;8720;48.488;9.202;2022-10-23T13:41:59;1.90;;;1.50;;
17207;SDS011;8720;48.488;9.202;2022-10-23T13:44:37;4.00;;;1.87;;
17207;SDS011;8720;48.488;9.202;2022-10-23T13:47:10;2.67;;;1.43;;
17207;SDS011;8720;48.488;9.202;2022-10-23T13:49:39;2.33;;;1.40;;
17207;SDS011;8720;48.488;9.202;2022-10-23T13:52:07;2.00;;;1.30;;
17207;SDS011;8720;48.488;9.202;2022-10-23T13:54:37;3.80;;;1.80;;
17207;SDS011;8720;48.488;9.202;2022-10-23T13:57:05;2.20;;;1.90;;
17207;SDS011;8720;48.488;9.202;2022-10-23T13:59:38;5.73;;;2.00;;
17207;SDS011;8720;48.488;9.202;2022-10-23T14:02:11;5.80;;;2.13;;
17207;SDS011;8720;48.488;9.202;2022-10-23T14:04:45;2.53;;;2.20;;
17207;SDS011;8720;48.488;9.202;2022-10-23T14:07:12;4.10;;;3.70;;
17207;SDS011;8720;48.488;9.202;2022-10-23T14:09:39;4.13;;;3.37;;
17207;SDS011;8720;48.488;9.202;2022-10-23T14:12:07;4.20;;;2.53;;
17207;SDS011;8720;48.488;9.202;2022-10-23T14:14:36;3.23;;;1.67;;
17207;SDS011;8720;48.488;9.202;2022-10-23T14:17:03;1.80;;;1.50;;
17207;SDS011;8720;48.488;9.202;2022-10-23T14:19:33;5.57;;;2.23;;
17207;SDS011;8720;48.488;9.202;2022-10-23T14:22:01;4.07;;;1.80;;
17207;SDS011;8720;48.488;9.202;2022-10-23T14:24:28;2.10;;;1.60;;
17207;SDS011;8720;48.488;9.202;2022-10-23T14:26:56;2.00;;;1.67;;
17207;SDS011;8720;48.488;9.202;2022-10-23T14:29:23;3.13;;;1.80;;
17207;SDS011;8720;48.488;9.202;2022-10-23T14:31:51;1.83;;;1.60;;
17207;SDS011;8720;48.488;9.202;2022-10-23T14:34:18;4.60;;;1.40;;
17207;SDS011;8720;48.488;9.202;2022-10-23T14:36:47;2.77;;;1.70;;
17207;SDS011;8720;48.488;9.202;2022-10-23T14:39:14;2.47;;;1.73;;
17207;SDS011;8720;48.488;9.202;2022-10-23T14:41:41;1.60;;;1.30;;
17207;SDS011;8720;48.488;9.202;2022-10-23T14:44:08;1.87;;;1.50;;
17207;SDS011;8720;48.488;9.202;2022-10-23T14:46:36;4.13;;;1.80;;
17207;SDS011;8720;48.488;9.202;2022-10-23T14:49:03;7.43;;;3.20;;
17207;SDS011;8720;48.488;9.202;2022-10-23T14:51:31;5.00;;;3.60;;
17207;SDS011;8720;48.488;9.202;2022-10-23T14:54:00;3.17;;;2.37;;
17207;SDS011;8720;48.488;9.202;2022-10-23T14:56:30;4.17;;;2.90;;
17207;SDS011;8720;48.488;9.202;2022-10-23T14:59:01;3.10;;;2.33;;
17207;SDS011;8720;48.488;9.202;2022-10-23T15:01:30;4.00;;;2.10;;
17207;SDS011;8720;48.488;9.202;2022-10-23T15:04:00;4.93;;;1.83;;
17207;SDS011;8720;48.488;9.202;2022-10-23T15:06:27;2.83;;;1.90;;
17207;SDS011;8720;48.488;9.202;2022-10-23T15:08:55;2.87;;;2.07;;
17207;SDS011;8720;48.488;9.202;2022-10-23T15:11:24;3.13;;;2.07;;
17207;SDS011;8720;48.488;9.202;2022-10-23T15:13:52;2.20;;;2.00;;
17207;SDS011;8720;48.488;9.202;2022-10-23T15:16:20;3.10;;;1.47;;
17207;SDS011;8720;48.488;9.202;2022-10-23T15:18:49;1.60;;;1.30;;
17207;SDS011;8720;48.488;9.202;2022-10-23T15:21:16;1.60;;;1.20;;
17207;SDS011;8720;48.488;9.202;2022-10-23T15:23:44;2.30;;;1.40;;
17207;SDS011;8720;48.488;9.202;2022-10-23T15:26:14;2.10;;;1.27;;
17207;SDS011;8720;48.488;9.202;2022-10-23T15:28:48;1.77;;;1.20;;
17207;SDS011;8720;48.488;9.202;2022-10-23T15:31:23;1.93;;;1.40;;
17207;SDS011;8720;48.488;9.202;2022-10-23T15:34:11;1.60;;;1.23;;
17207;SDS011;8720;48.488;9.202;2022-10-23T15:36:41;4.10;;;1.53;;
17207;SDS011;8720;48.488;9.202;2022-10-23T15:39:11;1.33;;;1.17;;
17207;SDS011;8720;48.488;9.202;2022-10-23T15:41:41;1.70;;;1.30;;
17207;SDS011;8720;48.488;9.202;2022-10-23T15:44:12;1.43;;;1.03;;
17207;SDS011;8720;48.488;9.202;2022-10-23T15:46:42;1.70;;;1.50;;
17207;SDS011;8720;48.488;9.202;2022-10-23T15:49:09;3.87;;;1.50;;
17207;SDS011;8720;48.488;9.202;2022-10-23T15:51:38;2.70;;;1.70;;
17207;SDS011;8720;48.488;9.202;2022-10-23T15:54:06;3.40;;;1.20;;
17207;SDS011;8720;48.488;9.202;2022-10-23T15:56:40;1.90;;;1.50;;
17207;SDS011;8720;48.488;9.202;2022-10-23T15:59:08;4.17;;;1.80;;